Webcam Flughafen St.Gallen-Altenrhein

Live-Bilder und Zeitraffer LSZR / ACH.

 

Live aus Altenrhein
LIVE
LSZR 131950Z AUTO VRB02KT CAVOK 22/17 Q1016
Zeitraffer heute
2020-08-13 00:13:55
LSZR 122150Z AUTO /////KT //// // ////// ///// Q////